createdAt,value
2016-08-02T00:00:34.874Z,1010.71
2016-08-02T00:01:34.869Z,1010.73
2016-08-02T00:02:34.899Z,1010.72
2016-08-02T00:03:34.835Z,1010.72
2016-08-02T00:04:34.820Z,1010.73
2016-08-02T00:05:34.811Z,1010.7
2016-08-02T00:06:34.790Z,1010.7
2016-08-02T00:07:34.787Z,1010.68
2016-08-02T00:09:34.750Z,1010.62
2016-08-02T00:10:34.737Z,1010.61
2016-08-02T00:11:34.718Z,1010.56
2016-08-02T00:12:34.707Z,1010.55
2016-08-02T00:13:34.693Z,1010.48
2016-08-02T00:14:34.678Z,1010.51
2016-08-02T00:15:34.670Z,1010.51
2016-08-02T00:16:34.650Z,1010.48
2016-08-02T00:17:34.639Z,1010.46
2016-08-02T00:18:34.631Z,1010.43
2016-08-02T00:19:34.617Z,1010.4
2016-08-02T00:20:34.597Z,1010.38
2016-08-02T00:21:34.578Z,1010.35
2016-08-02T00:22:34.568Z,1010.38
2016-08-02T00:24:34.534Z,1010.32
2016-08-02T00:25:34.530Z,1010.33
2016-08-02T00:26:34.510Z,1010.38
2016-08-02T00:27:34.500Z,1010.36
2016-08-02T00:28:34.479Z,1010.38
2016-08-02T00:29:34.470Z,1010.39
2016-08-02T00:30:34.458Z,1010.39
2016-08-02T00:31:34.450Z,1010.39
2016-08-02T00:32:34.430Z,1010.4
2016-08-02T00:33:34.407Z,1010.4
2016-08-02T00:34:34.396Z,1010.41
2016-08-02T00:35:34.390Z,1010.44
2016-08-02T00:36:34.367Z,1010.44
2016-08-02T00:37:34.357Z,1010.44
2016-08-02T00:39:34.324Z,1010.44
2016-08-02T00:40:34.310Z,1010.48
2016-08-02T00:41:34.299Z,1010.43
2016-08-02T00:42:34.286Z,1010.43
2016-08-02T00:43:34.270Z,1010.42
2016-08-02T00:44:34.254Z,1010.43
2016-08-02T00:45:34.241Z,1010.47
2016-08-02T00:46:34.224Z,1010.47
2016-08-02T00:47:34.213Z,1010.48
2016-08-02T00:48:34.198Z,1010.45
2016-08-02T00:49:34.184Z,1010.37
2016-08-02T00:50:34.168Z,1010.38
2016-08-02T00:51:34.155Z,1010.36
2016-08-02T00:52:34.139Z,1010.36
2016-08-02T00:53:34.128Z,1010.32
2016-08-02T00:54:34.111Z,1010.29
2016-08-02T00:55:34.096Z,1010.31
2016-08-02T00:56:34.081Z,1010.3
2016-08-02T00:57:34.065Z,1010.32
2016-08-02T00:58:34.059Z,1010.35
2016-08-02T00:59:34.042Z,1010.35
2016-08-02T01:00:34.025Z,1010.35
2016-08-02T01:01:34.014Z,1010.35
2016-08-02T01:02:33.999Z,1010.36
2016-08-02T01:03:33.987Z,1010.38
2016-08-02T01:04:33.967Z,1010.4
2016-08-02T01:05:33.956Z,1010.37
2016-08-02T01:06:33.940Z,1010.42
2016-08-02T01:07:33.927Z,1010.42
2016-08-02T01:08:33.915Z,1010.39
2016-08-02T01:09:33.898Z,1010.39
2016-08-02T01:10:33.886Z,1010.39
2016-08-02T01:11:33.868Z,1010.38
2016-08-02T01:12:33.853Z,1010.38
2016-08-02T01:13:33.847Z,1010.32
2016-08-02T01:14:33.829Z,1010.38
2016-08-02T01:15:33.814Z,1010.36
2016-08-02T01:16:33.800Z,1010.35
2016-08-02T01:17:33.787Z,1010.33
2016-08-02T01:18:33.770Z,1010.32
2016-08-02T01:19:33.760Z,1010.33
2016-08-02T01:20:33.742Z,1010.33
2016-08-02T01:21:33.727Z,1010.3
2016-08-02T01:22:33.710Z,1010.32
2016-08-02T01:23:33.698Z,1010.29
2016-08-02T01:24:33.688Z,1010.27
2016-08-02T01:25:33.669Z,1010.29
2016-08-02T01:26:33.657Z,1010.28
2016-08-02T01:27:33.640Z,1010.26
2016-08-02T01:28:33.626Z,1010.29
2016-08-02T01:29:33.618Z,1010.26
2016-08-02T01:30:33.600Z,1010.32
2016-08-02T01:31:33.582Z,1010.28
2016-08-02T01:32:33.572Z,1010.31
2016-08-02T01:33:33.556Z,1010.26
2016-08-02T01:34:33.537Z,1010.24
2016-08-02T01:35:33.527Z,1010.25
2016-08-02T01:36:33.517Z,1010.26
2016-08-02T01:37:33.501Z,1010.24
2016-08-02T01:38:33.485Z,1010.22
2016-08-02T01:39:33.469Z,1010.2
2016-08-02T01:40:33.458Z,1010.2
2016-08-02T01:41:33.438Z,1010.17
2016-08-02T01:42:33.433Z,1010.12
2016-08-02T01:43:33.414Z,1010.12
2016-08-02T01:44:33.398Z,1010.1
2016-08-02T01:45:33.384Z,1010.13
2016-08-02T01:46:33.369Z,1010.12
2016-08-02T01:47:33.354Z,1010.08
2016-08-02T01:48:33.336Z,1010.08
2016-08-02T01:49:33.324Z,1010.11
2016-08-02T01:50:33.310Z,1010.1
2016-08-02T01:51:33.298Z,1010.08
2016-08-02T01:52:33.285Z,1010.08
2016-08-02T01:53:33.270Z,1010.1
2016-08-02T01:54:33.261Z,1010.07
2016-08-02T01:55:33.241Z,1010.07
2016-08-02T01:56:33.228Z,1010.07
2016-08-02T01:57:33.210Z,1010.06
2016-08-02T01:58:33.199Z,1010.03
2016-08-02T01:59:33.189Z,1010
2016-08-02T02:00:33.171Z,1009.97
2016-08-02T02:01:33.159Z,1009.98
2016-08-02T02:02:33.138Z,1010.01
2016-08-02T02:03:33.125Z,1010.02
2016-08-02T02:04:33.110Z,1009.99
2016-08-02T02:05:33.100Z,1010
2016-08-02T02:06:33.083Z,1010.01
2016-08-02T02:07:33.071Z,1009.99
2016-08-02T02:08:33.052Z,1009.99
2016-08-02T02:09:33.041Z,1009.94
2016-08-02T02:10:33.031Z,1009.95
2016-08-02T02:11:33.008Z,1009.94
2016-08-02T02:12:33.000Z,1009.93
2016-08-02T02:13:32.989Z,1009.96
2016-08-02T02:14:32.970Z,1009.93
2016-08-02T02:15:32.960Z,1009.9
2016-08-02T02:16:32.940Z,1009.92
2016-08-02T02:17:32.924Z,1009.9
2016-08-02T02:18:32.908Z,1009.87
2016-08-02T02:19:32.897Z,1009.88
2016-08-02T02:20:32.882Z,1009.9
2016-08-02T02:21:32.869Z,1009.86
2016-08-02T02:22:32.856Z,1009.88
2016-08-02T02:23:32.835Z,1009.84
2016-08-02T02:24:32.828Z,1009.81
2016-08-02T02:25:32.810Z,1009.8
2016-08-02T02:26:32.792Z,1009.77
2016-08-02T02:27:32.779Z,1009.78
2016-08-02T02:28:32.770Z,1009.84
2016-08-02T02:29:32.747Z,1009.78
2016-08-02T02:30:32.736Z,1009.77
2016-08-02T02:31:32.719Z,1009.75
2016-08-02T02:32:32.704Z,1009.74
2016-08-02T02:33:32.708Z,1009.76
2016-08-02T02:34:32.677Z,1009.74
2016-08-02T02:35:32.669Z,1009.7
2016-08-02T02:36:32.648Z,1009.68
2016-08-02T02:37:32.641Z,1009.69
2016-08-02T02:38:32.622Z,1009.64
2016-08-02T02:39:32.607Z,1009.71
2016-08-02T02:40:32.587Z,1009.69
2016-08-02T02:41:32.579Z,1009.65
2016-08-02T02:42:32.570Z,1009.62
2016-08-02T02:43:32.549Z,1009.62
2016-08-02T02:44:32.538Z,1009.57
2016-08-02T02:45:32.520Z,1009.57
2016-08-02T02:46:32.533Z,1009.58
2016-08-02T02:47:32.487Z,1009.56
2016-08-02T02:48:32.537Z,1009.55
2016-08-02T02:49:32.462Z,1009.53
2016-08-02T02:50:32.451Z,1009.54
2016-08-02T02:51:32.431Z,1009.51
2016-08-02T02:52:32.430Z,1009.54
2016-08-02T02:53:32.400Z,1009.52
2016-08-02T02:54:32.387Z,1009.55
2016-08-02T02:55:32.375Z,1009.54
2016-08-02T02:56:32.357Z,1009.52
2016-08-02T02:57:32.350Z,1009.53
2016-08-02T02:58:32.332Z,1009.55
2016-08-02T02:59:32.319Z,1009.54
2016-08-02T03:00:32.300Z,1009.54
2016-08-02T03:01:32.290Z,1009.53
2016-08-02T03:02:32.281Z,1009.53
2016-08-02T03:03:32.261Z,1009.54
2016-08-02T03:04:32.248Z,1009.51
2016-08-02T03:05:32.228Z,1009.5
2016-08-02T03:06:32.210Z,1009.49
2016-08-02T03:07:32.201Z,1009.49
2016-08-02T03:08:32.191Z,1009.54
2016-08-02T03:09:32.171Z,1009.52
2016-08-02T03:10:32.152Z,1009.52
2016-08-02T03:11:32.140Z,1009.51
2016-08-02T03:12:32.131Z,1009.53
2016-08-02T03:13:32.110Z,1009.5
2016-08-02T03:14:32.095Z,1009.51
2016-08-02T03:15:32.079Z,1009.47
2016-08-02T03:16:32.071Z,1009.45
2016-08-02T03:17:32.051Z,1009.41
2016-08-02T03:18:32.041Z,1009.36
2016-08-02T03:19:32.021Z,1009.33
2016-08-02T03:20:32.010Z,1009.31
2016-08-02T03:21:31.990Z,1009.31
2016-08-02T03:22:31.981Z,1009.25
2016-08-02T03:23:31.969Z,1009.29
2016-08-02T03:24:31.946Z,1009.3
2016-08-02T03:25:31.932Z,1009.27
2016-08-02T03:26:31.926Z,1009.28
2016-08-02T03:27:31.905Z,1009.26
2016-08-02T03:28:31.890Z,1009.3
2016-08-02T03:29:31.872Z,1009.24
2016-08-02T03:30:31.859Z,1009.22
2016-08-02T03:31:31.854Z,1009.25
2016-08-02T03:32:31.829Z,1009.25
2016-08-02T03:33:31.813Z,1009.25
2016-08-02T03:34:31.801Z,1009.25
2016-08-02T03:35:31.789Z,1009.27
2016-08-02T03:36:31.775Z,1009.24
2016-08-02T03:37:31.760Z,1009.22
2016-08-02T03:38:31.737Z,1009.23
2016-08-02T03:39:31.735Z,1009.18
2016-08-02T03:40:31.720Z,1009.17
2016-08-02T03:41:31.698Z,1009.15
2016-08-02T03:42:31.690Z,1009.12
2016-08-02T03:43:31.670Z,1009.11
2016-08-02T03:44:31.654Z,1009.12
2016-08-02T03:45:31.641Z,1009.14
2016-08-02T03:46:31.633Z,1009.15
2016-08-02T03:47:31.610Z,1009.13
2016-08-02T03:48:31.600Z,1009.14
2016-08-02T03:49:31.584Z,1009.11
2016-08-02T03:50:31.571Z,1009.09
2016-08-02T03:51:31.563Z,1009.09
2016-08-02T03:52:31.538Z,1009.04
2016-08-02T03:53:31.527Z,1009.04
2016-08-02T03:54:31.510Z,1009.05
2016-08-02T03:55:31.493Z,1009.02
2016-08-02T03:56:31.480Z,1009.01
2016-08-02T03:57:31.470Z,1008.99
2016-08-02T03:58:31.452Z,1009.02
2016-08-02T03:59:31.441Z,1009
2016-08-02T04:00:31.419Z,1008.98
2016-08-02T04:01:31.407Z,1009
2016-08-02T04:02:31.398Z,1009
2016-08-02T04:03:31.381Z,1009.04
2016-08-02T04:04:31.365Z,1009
2016-08-02T04:05:31.350Z,1009
2016-08-02T04:06:31.334Z,1009.02
2016-08-02T04:07:31.320Z,1008.99
2016-08-02T04:08:31.309Z,1008.96
2016-08-02T04:09:31.304Z,1008.96
2016-08-02T04:10:31.278Z,1008.95
2016-08-02T04:11:31.263Z,1008.92
2016-08-02T04:12:31.252Z,1008.93
2016-08-02T04:13:31.229Z,1008.91
2016-08-02T04:14:31.220Z,1008.92
2016-08-02T04:15:31.208Z,1008.89
2016-08-02T04:16:31.187Z,1008.89
2016-08-02T04:17:31.174Z,1008.89
2016-08-02T04:18:31.161Z,1008.89
2016-08-02T04:19:31.149Z,1008.86
2016-08-02T04:20:31.142Z,1008.83
2016-08-02T04:21:31.119Z,1008.8
2016-08-02T04:22:31.100Z,1008.82
2016-08-02T04:23:31.090Z,1008.83
2016-08-02T04:24:31.072Z,1008.78
2016-08-02T04:25:31.056Z,1008.86
2016-08-02T04:26:31.044Z,1008.86
2016-08-02T04:27:31.041Z,1008.83
2016-08-02T04:28:31.020Z,1008.84
2016-08-02T04:29:31.011Z,1008.85
2016-08-02T04:30:30.985Z,1008.85
2016-08-02T04:31:30.978Z,1008.84
2016-08-02T04:32:30.956Z,1008.83
2016-08-02T04:33:30.948Z,1008.88
2016-08-02T04:34:30.928Z,1008.84
2016-08-02T04:35:30.920Z,1008.86
2016-08-02T04:36:30.901Z,1008.84
2016-08-02T04:37:30.888Z,1008.85
2016-08-02T04:38:30.870Z,1008.84
2016-08-02T04:39:30.858Z,1008.84
2016-08-02T04:40:30.842Z,1008.85
2016-08-02T04:41:30.824Z,1008.84
2016-08-02T04:42:30.811Z,1008.85
2016-08-02T04:43:30.798Z,1008.84
2016-08-02T04:44:30.789Z,1008.82
2016-08-02T04:45:30.821Z,1008.78
2016-08-02T04:46:30.761Z,1008.76
2016-08-02T04:47:30.790Z,1008.73
2016-08-02T04:48:30.738Z,1008.74
2016-08-02T04:49:30.757Z,1008.75
2016-08-02T04:50:30.698Z,1008.74
2016-08-02T04:51:30.688Z,1008.72
2016-08-02T04:52:30.667Z,1008.69
2016-08-02T04:53:30.696Z,1008.71
2016-08-02T04:54:30.638Z,1008.73
2016-08-02T04:55:30.621Z,1008.73
2016-08-02T04:56:30.611Z,1008.74
2016-08-02T04:57:30.598Z,1008.78
2016-08-02T04:58:30.577Z,1008.8
2016-08-02T04:59:30.563Z,1008.84
2016-08-02T05:00:30.549Z,1008.83
2016-08-02T05:01:30.534Z,1008.84
2016-08-02T05:02:30.517Z,1008.83
2016-08-02T05:03:30.507Z,1008.86
2016-08-02T05:04:30.489Z,1008.86
2016-08-02T05:05:30.498Z,1008.85
2016-08-02T05:06:30.464Z,1008.9
2016-08-02T05:07:30.445Z,1008.91
2016-08-02T05:08:30.432Z,1008.93
2016-08-02T05:09:30.416Z,1008.94
2016-08-02T05:10:30.398Z,1008.92
2016-08-02T05:11:30.385Z,1008.92
2016-08-02T05:12:30.380Z,1008.9
2016-08-02T05:13:30.364Z,1008.91
2016-08-02T05:14:30.350Z,1008.93
2016-08-02T05:15:30.330Z,1008.96
2016-08-02T05:16:30.318Z,1008.97
2016-08-02T05:17:30.297Z,1008.92
2016-08-02T05:18:30.288Z,1008.94
2016-08-02T05:19:30.269Z,1008.9
2016-08-02T05:20:30.258Z,1008.91
2016-08-02T05:21:30.238Z,1008.86
2016-08-02T05:22:30.228Z,1008.89
2016-08-02T05:23:30.211Z,1008.86
2016-08-02T05:24:30.195Z,1008.82
2016-08-02T05:25:30.177Z,1008.83
2016-08-02T05:26:30.162Z,1008.84
2016-08-02T05:27:30.147Z,1008.86
2016-08-02T05:28:30.140Z,1008.81
2016-08-02T05:29:30.121Z,1008.82
2016-08-02T05:30:30.110Z,1008.83
2016-08-02T05:31:30.089Z,1008.83
2016-08-02T05:32:30.080Z,1008.84
2016-08-02T05:33:30.067Z,1008.84
2016-08-02T05:34:30.051Z,1008.82
2016-08-02T05:35:30.028Z,1008.86
2016-08-02T05:36:30.014Z,1008.84
2016-08-02T05:37:30.004Z,1008.84
2016-08-02T05:38:29.988Z,1008.84
2016-08-02T05:39:29.972Z,1008.81
2016-08-02T05:40:29.960Z,1008.79
2016-08-02T05:41:29.948Z,1008.83
2016-08-02T05:42:29.930Z,1008.79
2016-08-02T05:43:29.913Z,1008.8
2016-08-02T05:44:29.900Z,1008.73
2016-08-02T05:45:29.884Z,1008.75
2016-08-02T05:46:29.871Z,1008.72
2016-08-02T05:47:29.860Z,1008.71
2016-08-02T05:48:29.849Z,1008.72
2016-08-02T05:49:29.831Z,1008.69
2016-08-02T05:50:29.818Z,1008.69
2016-08-02T05:51:29.800Z,1008.67
2016-08-02T05:52:29.786Z,1008.66
2016-08-02T05:53:29.767Z,1008.68
2016-08-02T05:54:29.753Z,1008.69
2016-08-02T05:55:29.746Z,1008.68
2016-08-02T05:56:29.725Z,1008.68
2016-08-02T05:57:29.713Z,1008.64
2016-08-02T05:58:29.698Z,1008.64
2016-08-02T05:59:29.689Z,1008.7
2016-08-02T06:00:29.672Z,1008.7
2016-08-02T06:01:29.656Z,1008.71
2016-08-02T06:02:29.639Z,1008.71
2016-08-02T06:03:29.625Z,1008.68
2016-08-02T06:04:29.617Z,1008.68
2016-08-02T06:05:29.598Z,1008.68
2016-08-02T06:06:29.585Z,1008.67
2016-08-02T06:07:29.574Z,1008.64
2016-08-02T06:08:29.556Z,1008.61
2016-08-02T06:10:29.528Z,1008.64
2016-08-02T06:11:29.508Z,1008.63
2016-08-02T06:12:29.504Z,1008.63
2016-08-02T06:13:29.484Z,1008.67
2016-08-02T06:14:29.473Z,1008.69
2016-08-02T06:15:29.456Z,1008.72
2016-08-02T06:16:29.439Z,1008.73
2016-08-02T06:17:29.427Z,1008.74
2016-08-02T06:18:29.411Z,1008.73
2016-08-02T06:19:29.396Z,1008.75
2016-08-02T06:20:29.389Z,1008.75
2016-08-02T06:21:29.369Z,1008.73
2016-08-02T06:22:29.381Z,1008.74
2016-08-02T06:23:29.341Z,1008.71
2016-08-02T06:25:29.309Z,1008.72
2016-08-02T06:26:29.350Z,1008.73
2016-08-02T06:27:29.278Z,1008.74
2016-08-02T06:28:29.269Z,1008.74
2016-08-02T06:29:29.255Z,1008.77
2016-08-02T06:30:29.289Z,1008.79
2016-08-02T06:31:29.225Z,1008.79
2016-08-02T06:32:29.209Z,1008.78
2016-08-02T06:33:29.192Z,1008.76
2016-08-02T06:34:29.180Z,1008.75
2016-08-02T06:35:29.169Z,1008.74
2016-08-02T06:36:29.151Z,1008.76
2016-08-02T06:37:29.136Z,1008.76
2016-08-02T06:38:29.119Z,1008.73
2016-08-02T06:40:29.098Z,1008.69
2016-08-02T06:41:29.081Z,1008.66
2016-08-02T06:42:29.067Z,1008.61
2016-08-02T06:43:29.049Z,1008.62
2016-08-02T06:44:29.035Z,1008.6
2016-08-02T06:45:29.027Z,1008.58
2016-08-02T06:46:29.008Z,1008.52
2016-08-02T06:47:28.998Z,1008.53
2016-08-02T06:48:28.981Z,1008.51
2016-08-02T06:49:28.964Z,1008.49
2016-08-02T06:50:28.955Z,1008.51
2016-08-02T06:51:28.932Z,1008.51
2016-08-02T06:52:28.921Z,1008.54
2016-08-02T06:53:28.909Z,1008.53
2016-08-02T06:54:28.891Z,1008.58
2016-08-02T06:55:28.880Z,1008.56
2016-08-02T06:56:28.863Z,1008.57
2016-08-02T06:57:28.848Z,1008.53
2016-08-02T06:58:28.842Z,1008.56
2016-08-02T06:59:28.827Z,1008.52
2016-08-02T07:00:28.808Z,1008.57
2016-08-02T07:01:28.789Z,1008.55
2016-08-02T07:02:28.783Z,1008.57
2016-08-02T07:03:28.764Z,1008.57
2016-08-02T07:04:28.750Z,1008.59
2016-08-02T07:05:28.739Z,1008.58
2016-08-02T07:06:28.721Z,1008.59
2016-08-02T07:07:28.706Z,1008.57
2016-08-02T07:08:28.700Z,1008.56
2016-08-02T07:09:28.679Z,1008.54
2016-08-02T07:10:28.665Z,1008.53
2016-08-02T07:11:28.647Z,1008.55
2016-08-02T07:12:28.639Z,1008.53
2016-08-02T07:13:28.620Z,1008.59
2016-08-02T07:14:28.621Z,1008.54
2016-08-02T07:15:28.593Z,1008.56
2016-08-02T07:16:28.580Z,1008.57
2016-08-02T07:17:28.563Z,1008.58
2016-08-02T07:18:28.553Z,1008.56
2016-08-02T07:19:28.540Z,1008.58
2016-08-02T07:20:28.528Z,1008.59
2016-08-02T07:21:28.510Z,1008.58
2016-08-02T07:22:28.495Z,1008.59
2016-08-02T07:23:28.480Z,1008.58
2016-08-02T07:24:28.471Z,1008.59
2016-08-02T07:25:28.459Z,1008.58
2016-08-02T07:26:28.441Z,1008.55
2016-08-02T07:27:28.428Z,1008.54
2016-08-02T07:28:28.409Z,1008.56
2016-08-02T07:29:28.401Z,1008.52
2016-08-02T07:30:28.378Z,1008.46
2016-08-02T07:31:28.371Z,1008.45
2016-08-02T07:32:28.362Z,1008.4
2016-08-02T07:33:28.338Z,1008.37
2016-08-02T07:34:28.323Z,1008.37
2016-08-02T07:35:28.307Z,1008.4
2016-08-02T07:36:28.305Z,1008.41
2016-08-02T07:37:28.276Z,1008.46
2016-08-02T07:38:28.272Z,1008.45
2016-08-02T07:39:28.255Z,1008.46
2016-08-02T07:40:28.238Z,1008.47
2016-08-02T07:41:28.226Z,1008.5
2016-08-02T07:42:28.215Z,1008.51
2016-08-02T07:43:28.198Z,1008.49
2016-08-02T07:44:28.182Z,1008.53
2016-08-02T07:45:28.171Z,1008.53
2016-08-02T07:46:28.159Z,1008.56
2016-08-02T07:47:28.141Z,1008.54
2016-08-02T07:48:28.128Z,1008.58
2016-08-02T07:49:28.115Z,1008.54
2016-08-02T07:50:28.101Z,1008.55
2016-08-02T07:51:28.085Z,1008.58
2016-08-02T07:52:28.071Z,1008.51
2016-08-02T07:53:28.057Z,1008.53
2016-08-02T07:54:28.040Z,1008.52
2016-08-02T07:55:28.032Z,1008.5
2016-08-02T07:56:28.010Z,1008.53
2016-08-02T07:57:27.998Z,1008.51
2016-08-02T07:58:27.991Z,1008.52
2016-08-02T07:59:27.969Z,1008.5
2016-08-02T08:00:27.957Z,1008.5
2016-08-02T08:01:27.942Z,1008.48
2016-08-02T08:02:27.930Z,1008.45
2016-08-02T08:03:27.911Z,1008.42
2016-08-02T08:04:27.902Z,1008.42
2016-08-02T08:05:27.890Z,1008.43
2016-08-02T08:06:27.866Z,1008.4
2016-08-02T08:07:27.851Z,1008.4
2016-08-02T08:08:27.849Z,1008.43
2016-08-02T08:09:27.825Z,1008.42
2016-08-02T08:10:27.813Z,1008.41
2016-08-02T08:11:27.799Z,1008.44
2016-08-02T08:12:27.791Z,1008.42
2016-08-02T08:13:27.770Z,1008.43
2016-08-02T08:14:27.753Z,1008.45
2016-08-02T08:15:27.740Z,1008.43
2016-08-02T08:16:27.731Z,1008.47
2016-08-02T08:17:27.720Z,1008.48
2016-08-02T08:18:27.702Z,1008.46
2016-08-02T08:19:27.686Z,1008.43
2016-08-02T08:20:27.671Z,1008.48
2016-08-02T08:21:27.660Z,1008.52
2016-08-02T08:22:27.641Z,1008.51
2016-08-02T08:23:27.630Z,1008.47
2016-08-02T08:24:27.609Z,1008.52
2016-08-02T08:25:27.602Z,1008.52
2016-08-02T08:26:27.577Z,1008.5
2016-08-02T08:27:27.570Z,1008.46
2016-08-02T08:28:27.554Z,1008.48
2016-08-02T08:29:27.542Z,1008.39
2016-08-02T08:30:27.521Z,1008.38
2016-08-02T08:31:27.507Z,1008.35
2016-08-02T08:32:27.500Z,1008.35
2016-08-02T08:33:27.482Z,1008.31
2016-08-02T08:34:27.462Z,1008.27
2016-08-02T08:35:27.448Z,1008.3
2016-08-02T08:36:27.434Z,1008.26
2016-08-02T08:37:27.421Z,1008.26
2016-08-02T08:38:27.406Z,1008.25
2016-08-02T08:39:27.391Z,1008.22
2016-08-02T08:40:27.381Z,1008.25
2016-08-02T08:41:27.361Z,1008.2
2016-08-02T08:42:27.347Z,1008.16
2016-08-02T08:43:27.329Z,1008.2
2016-08-02T08:44:27.321Z,1008.17
2016-08-02T08:45:27.298Z,1008.1
2016-08-02T08:46:27.288Z,1008.12
2016-08-02T08:47:27.274Z,1008.11
2016-08-02T08:48:27.260Z,1008.13
2016-08-02T08:49:27.244Z,1008.12
2016-08-02T08:50:27.238Z,1008.13
2016-08-02T08:51:27.219Z,1008.11
2016-08-02T08:52:27.199Z,1008.13
2016-08-02T08:53:27.184Z,1008.12
2016-08-02T08:54:27.176Z,1008.12
2016-08-02T08:55:27.161Z,1008.12
2016-08-02T08:56:27.149Z,1008.11
2016-08-02T08:57:27.138Z,1008.11
2016-08-02T08:58:27.121Z,1008.13
2016-08-02T08:59:27.108Z,1008.15
2016-08-02T09:00:27.098Z,1008.16
2016-08-02T09:01:27.079Z,1008.15
2016-08-02T09:02:27.068Z,1008.17
2016-08-02T09:03:27.058Z,1008.16
2016-08-02T09:04:27.041Z,1008.13
2016-08-02T09:05:27.022Z,1008.12
2016-08-02T09:06:27.014Z,1008.12
2016-08-02T09:07:26.996Z,1008.12
2016-08-02T09:08:26.987Z,1008.12
2016-08-02T09:09:26.980Z,1008.13
2016-08-02T09:10:26.958Z,1008.08
2016-08-02T09:11:26.952Z,1008.09
2016-08-02T09:12:26.941Z,1008.07
2016-08-02T09:13:26.920Z,1008.05
2016-08-02T09:14:26.907Z,1008.04
2016-08-02T09:15:26.893Z,1008
2016-08-02T09:16:26.885Z,1007.98
2016-08-02T09:17:26.867Z,1007.98
2016-08-02T09:18:26.908Z,1007.96
2016-08-02T09:19:26.844Z,1007.98
2016-08-02T09:20:26.909Z,1008.02
2016-08-02T09:21:26.821Z,1007.93
2016-08-02T09:22:26.848Z,1007.98
2016-08-02T09:23:26.791Z,1007.94
2016-08-02T09:24:26.778Z,1007.96
2016-08-02T09:25:26.765Z,1008
2016-08-02T09:26:26.771Z,1007.96
2016-08-02T09:27:26.736Z,1007.99
2016-08-02T09:28:26.729Z,1007.97
2016-08-02T09:29:26.716Z,1007.99
2016-08-02T09:30:26.703Z,1008
2016-08-02T09:31:26.690Z,1008.01
2016-08-02T09:32:26.724Z,1008.01
2016-08-02T09:33:26.658Z,1007.99
2016-08-02T09:34:26.649Z,1007.98
2016-08-02T09:35:26.639Z,1007.98
2016-08-02T09:36:26.619Z,1007.96
2016-08-02T09:37:26.611Z,1007.97
2016-08-02T09:38:26.587Z,1007.98
2016-08-02T09:39:26.577Z,1007.96
2016-08-02T09:40:26.568Z,1007.92
2016-08-02T09:41:26.548Z,1007.93
2016-08-02T09:42:26.539Z,1007.93
2016-08-02T09:43:26.523Z,1007.94
2016-08-02T09:44:26.511Z,1007.9
2016-08-02T09:45:26.501Z,1007.94
2016-08-02T09:46:26.488Z,1007.9
2016-08-02T09:47:26.472Z,1007.88
2016-08-02T09:48:26.460Z,1007.91
2016-08-02T09:49:26.450Z,1007.89
2016-08-02T09:50:26.437Z,1007.88
2016-08-02T09:51:26.421Z,1007.92
2016-08-02T09:52:26.411Z,1007.86
2016-08-02T09:53:26.391Z,1007.84
2016-08-02T09:54:26.385Z,1007.8
2016-08-02T09:56:26.360Z,1007.79
2016-08-02T09:57:26.342Z,1007.75
2016-08-02T09:58:26.329Z,1007.77
2016-08-02T09:59:26.316Z,1007.75
2016-08-02T10:00:26.302Z,1007.73
2016-08-02T10:01:26.293Z,1007.72
2016-08-02T10:02:26.281Z,1007.7
2016-08-02T10:03:26.268Z,1007.66
2016-08-02T10:04:26.247Z,1007.68
2016-08-02T10:05:26.235Z,1007.66
2016-08-02T10:06:26.222Z,1007.66
2016-08-02T10:07:26.206Z,1007.66
2016-08-02T10:08:26.200Z,1007.62
2016-08-02T10:09:26.187Z,1007.63
2016-08-02T10:11:26.159Z,1007.66
2016-08-02T10:12:26.150Z,1007.67
2016-08-02T10:13:26.133Z,1007.67
2016-08-02T10:14:26.127Z,1007.67
2016-08-02T10:15:26.102Z,1007.66
2016-08-02T10:16:26.093Z,1007.65
2016-08-02T10:17:26.077Z,1007.67
2016-08-02T10:18:26.058Z,1007.6
2016-08-02T10:19:26.052Z,1007.6
2016-08-02T10:20:26.034Z,1007.61
2016-08-02T10:21:26.020Z,1007.58
2016-08-02T10:22:26.020Z,1007.64
2016-08-02T10:23:26.009Z,1007.64
2016-08-02T10:24:25.982Z,1007.61
2016-08-02T10:26:25.960Z,1007.6
2016-08-02T10:27:25.938Z,1007.58
2016-08-02T10:28:25.933Z,1007.58
2016-08-02T10:29:25.913Z,1007.61
2016-08-02T10:30:25.921Z,1007.61
2016-08-02T10:31:25.889Z,1007.62
2016-08-02T10:32:25.874Z,1007.63
2016-08-02T10:33:25.863Z,1007.6
2016-08-02T10:34:25.846Z,1007.63
2016-08-02T10:35:25.830Z,1007.6
2016-08-02T10:36:25.824Z,1007.61
2016-08-02T10:37:25.813Z,1007.61
2016-08-02T10:38:25.789Z,1007.63
2016-08-02T10:39:25.784Z,1007.67
2016-08-02T10:41:25.753Z,1007.66
2016-08-02T10:42:25.733Z,1007.66
2016-08-02T10:43:25.720Z,1007.67
2016-08-02T10:44:25.713Z,1007.65
2016-08-02T10:45:25.692Z,1007.66
2016-08-02T10:46:25.683Z,1007.69
2016-08-02T10:47:25.670Z,1007.69
2016-08-02T10:48:25.653Z,1007.7
2016-08-02T10:49:25.637Z,1007.73
2016-08-02T10:50:25.620Z,1007.75
2016-08-02T10:51:25.613Z,1007.72
2016-08-02T10:52:25.593Z,1007.73
2016-08-02T10:53:25.584Z,1007.73
2016-08-02T10:54:25.571Z,1007.76
2016-08-02T10:56:25.542Z,1007.73
2016-08-02T10:57:25.531Z,1007.72
2016-08-02T10:58:25.512Z,1007.74
2016-08-02T10:59:25.500Z,1007.78
2016-08-02T11:00:25.485Z,1007.74
2016-08-02T11:01:25.474Z,1007.76
2016-08-02T11:02:25.460Z,1007.71
2016-08-02T11:03:25.450Z,1007.73
2016-08-02T11:04:25.441Z,1007.75
2016-08-02T11:05:25.428Z,1007.73
2016-08-02T11:06:25.413Z,1007.73
2016-08-02T11:07:25.401Z,1007.71
2016-08-02T11:08:25.388Z,1007.76
2016-08-02T11:09:25.379Z,1007.75
2016-08-02T11:11:25.353Z,1007.69
2016-08-02T11:12:25.337Z,1007.68
2016-08-02T11:13:25.325Z,1007.65
2016-08-02T11:14:25.323Z,1007.64
2016-08-02T11:15:25.297Z,1007.59
2016-08-02T11:16:25.300Z,1007.57
2016-08-02T11:17:25.277Z,1007.54
2016-08-02T11:18:25.264Z,1007.57
2016-08-02T11:19:25.249Z,1007.53
2016-08-02T11:20:25.250Z,1007.47
2016-08-02T11:21:25.226Z,1007.48
2016-08-02T11:22:25.213Z,1007.51
2016-08-02T11:23:25.201Z,1007.49
2016-08-02T11:24:25.191Z,1007.5
2016-08-02T11:25:25.190Z,1007.47
2016-08-02T11:26:25.161Z,1007.49
2016-08-02T11:27:25.149Z,1007.47
2016-08-02T11:28:25.138Z,1007.47
2016-08-02T11:29:25.132Z,1007.44
2016-08-02T11:30:25.110Z,1007.44
2016-08-02T11:31:25.104Z,1007.42
2016-08-02T11:32:25.089Z,1007.43
2016-08-02T11:33:25.070Z,1007.4
2016-08-02T11:34:25.062Z,1007.39
2016-08-02T11:35:25.046Z,1007.38
2016-08-02T11:36:25.046Z,1007.38
2016-08-02T11:37:25.028Z,1007.4
2016-08-02T11:38:25.012Z,1007.39
2016-08-02T11:39:25.000Z,1007.35
2016-08-02T11:40:24.983Z,1007.35
2016-08-02T11:41:24.969Z,1007.37
2016-08-02T11:42:24.959Z,1007.36
2016-08-02T11:43:24.962Z,1007.38
2016-08-02T11:44:24.942Z,1007.41
2016-08-02T11:45:24.920Z,1007.42
2016-08-02T11:46:24.909Z,1007.42
2016-08-02T11:47:24.901Z,1007.38
2016-08-02T11:48:24.886Z,1007.39
2016-08-02T11:49:24.869Z,1007.38
2016-08-02T11:50:24.873Z,1007.39
2016-08-02T11:51:24.852Z,1007.38
2016-08-02T11:52:24.874Z,1007.4
2016-08-02T11:53:24.829Z,1007.43
2016-08-02T11:54:24.817Z,1007.46
2016-08-02T11:55:24.801Z,1007.45
2016-08-02T11:56:24.791Z,1007.47
2016-08-02T11:57:24.782Z,1007.44
2016-08-02T11:58:24.769Z,1007.47
2016-08-02T11:59:24.751Z,1007.42
2016-08-02T12:00:24.738Z,1007.38
2016-08-02T12:01:24.727Z,1007.37
2016-08-02T12:02:24.761Z,1007.37
2016-08-02T12:03:24.698Z,1007.36
2016-08-02T12:04:24.693Z,1007.4
2016-08-02T12:05:24.678Z,1007.39
2016-08-02T12:06:24.665Z,1007.4
2016-08-02T12:07:24.653Z,1007.42
2016-08-02T12:08:24.639Z,1007.42
2016-08-02T12:09:24.629Z,1007.41
2016-08-02T12:10:24.608Z,1007.45
2016-08-02T12:11:24.600Z,1007.44
2016-08-02T12:12:24.589Z,1007.42
2016-08-02T12:13:24.579Z,1007.42
2016-08-02T12:14:24.561Z,1007.45
2016-08-02T12:15:24.548Z,1007.47
2016-08-02T12:16:24.537Z,1007.48
2016-08-02T12:17:24.527Z,1007.46
2016-08-02T12:18:24.510Z,1007.46
2016-08-02T12:19:24.498Z,1007.48
2016-08-02T12:20:24.484Z,1007.49